Time;durP1;ratioP1;P1;durP2;ratioP2;P2;SDS_P1;SDS_P2;PMS_P1;PMS_P2;Temp;Humidity;BMP_temperature;BMP_pressure;BME280_temperature;BME280_humidity;BME280_pressure;Samples;Min_cycle;Max_cycle;Signal;HPM_P1;HPM_P2
2023/01/07 00:02:04;;;;;;;;;;;;;;;7.95;100.00;99124.50;4208629;34;20250;-74
2023/01/07 00:04:30;;;;;;;;;;;;;;;7.72;100.00;99122.59;4234685;33;20286;-74
2023/01/07 00:06:58;;;;;;;;;;;;;;;7.79;100.00;99117.13;4267164;33;19977;-74
2023/01/07 00:09:24;;;;;;;;;;;;;;;7.76;100.00;99117.56;4268210;33;19968;-75
2023/01/07 00:11:50;;;;;;;;;;;;;;;7.83;100.00;99126.31;4266447;33;20253;-74
2023/01/07 00:14:17;;;;;;;;;;;;;;;7.85;100.00;99131.44;4266352;33;19983;-74
2023/01/07 00:16:43;;;;;;;;;;;;;;;7.88;100.00;99126.47;4270556;33;20345;-74
2023/01/07 00:19:11;;;;;;;;;;;;;;;7.71;100.00;99130.84;4270677;33;19967;-74
2023/01/07 00:21:37;;;;;;;;;;;;;;;7.67;100.00;99135.03;4269875;33;19981;-73
2023/01/07 00:24:04;;;;;;;;;;;;;;;7.74;100.00;99141.91;4270727;33;20337;-73
2023/01/07 00:26:32;;;;;;;;;;;;;;;7.64;100.00;99142.47;4268250;33;19954;-73
2023/01/07 00:28:59;;;;;;;;;;;;;;;7.78;100.00;99153.00;4270543;33;19967;-73
2023/01/07 00:31:26;;;;;;;;;;;;;;;7.67;100.00;99156.47;4269982;33;20317;-73
2023/01/07 00:36:20;;;;;;;;;;;;;;;7.92;100.00;99159.81;4269619;33;19945;-73
2023/01/07 00:38:46;;;;;;;;;;;;;;;7.68;100.00;99155.41;4268628;33;19946;-73
2023/01/07 00:41:13;;;;;;;;;;;;;;;7.88;100.00;99163.16;4270103;33;20391;-73
2023/01/07 00:43:39;;;;;;;;;;;;;;;7.91;100.00;99152.78;4268885;33;19957;-73
2023/01/07 00:46:05;;;;;;;;;;;;;;;7.94;100.00;99157.69;4268096;33;19942;-73
2023/01/07 00:48:32;;;;;;;;;;;;;;;7.99;100.00;99155.16;4267816;33;19964;-73
2023/01/07 00:50:58;;;;;;;;;;;;;;;7.93;100.00;99166.81;4265854;33;20317;-73
2023/01/07 00:53:24;;;;;;;;;;;;;;;7.95;100.00;99163.91;4267594;33;19960;-73
2023/01/07 00:55:51;;;;;;;;;;;;;;;7.95;100.00;99174.62;4267803;33;19941;-73
2023/01/07 00:58:21;;;;;;;;;;;;;;;7.91;100.00;99163.50;4267804;33;19945;-73
2023/01/07 03:01:01;;;;;;;;;;;;;;;6.91;100.00;99164.81;4831665;27;19960;-73
2023/01/07 03:03:47;;;;;;;;;;;;;;;6.79;100.00;99159.34;4291145;33;20010;-73
2023/01/07 03:06:28;;;;;;;;;;;;;;;6.76;100.00;99167.00;4291357;33;19952;-73
2023/01/07 03:08:57;;;;;;;;;;;;;;;6.93;100.00;99168.06;4296617;33;20068;-73
2023/01/07 03:11:27;;;;;;;;;;;;;;;6.87;100.00;99168.94;4297185;33;20098;-73
2023/01/07 03:14:01;;;;;;;;;;;;;;;6.59;100.00;99166.75;4297019;33;20007;-73
2023/01/07 03:16:36;;;;;;;;;;;;;;;6.57;100.00;99164.28;4296685;33;20287;-75
2023/01/07 03:19:05;;;;;;;;;;;;;;;6.60;100.00;99184.44;4300551;33;19953;-73
2023/01/07 03:21:33;;;;;;;;;;;;;;;6.59;100.00;99177.44;4296973;33;19977;-74
2023/01/07 03:23:59;;;;;;;;;;;;;;;6.68;100.00;99186.84;4298475;33;19945;-74
2023/01/07 03:26:29;;;;;;;;;;;;;;;6.71;100.00;99187.22;4298938;33;19968;-74
2023/01/07 03:28:58;;;;;;;;;;;;;;;6.48;100.00;99190.53;4298613;33;19953;-74
2023/01/07 03:31:25;;;;;;;;;;;;;;;6.59;100.00;99188.16;4297081;33;20254;-74
2023/01/07 03:33:54;;;;;;;;;;;;;;;6.85;100.00;99189.78;4251874;33;19942;-74
2023/01/07 03:36:24;;;;;;;;;;;;;;;6.68;100.00;99187.66;4222293;34;19976;-74
2023/01/07 03:38:54;;;;;;;;;;;;;;;6.78;100.00;99187.16;4223048;34;19947;-74
2023/01/07 03:44:05;;;;;;;;;;;;;;;6.85;100.00;99181.75;4222464;34;19943;-74
2023/01/07 03:46:33;;;;;;;;;;;;;;;6.89;100.00;99178.41;4223839;34;19943;-74
2023/01/07 03:49:00;;;;;;;;;;;;;;;6.88;100.00;99176.75;4223986;33;19954;-74
2023/01/07 03:51:26;;;;;;;;;;;;;;;6.83;100.00;99176.63;4226408;34;19943;-74
2023/01/07 03:53:52;;;;;;;;;;;;;;;6.83;100.00;99173.94;4213229;34;19939;-74
2023/01/07 03:56:18;;;;;;;;;;;;;;;6.96;100.00;99170.31;4225916;34;19998;-74
2023/01/07 03:58:45;;;;;;;;;;;;;;;6.79;100.00;99172.72;4226219;34;19938;-73
2023/01/07 04:01:11;;;;;;;;;;;;;;;7.00;100.00;99178.69;4226030;34;20299;-73
2023/01/07 04:03:38;;;;;;;;;;;;;;;6.95;100.00;99170.53;4219753;34;20105;-74
2023/01/07 04:06:04;;;;;;;;;;;;;;;6.89;100.00;99177.56;4237677;33;19935;-73
2023/01/07 04:08:30;;;;;;;;;;;;;;;6.84;100.00;99180.91;4281314;33;19957;-73
2023/01/07 04:10:57;;;;;;;;;;;;;;;7.06;100.00;99177.81;4283030;33;19955;-73
2023/01/07 04:13:23;;;;;;;;;;;;;;;7.22;100.00;99169.16;4281520;33;20004;-74
2023/01/07 04:15:49;;;;;;;;;;;;;;;7.03;100.00;99178.25;4250443;33;19938;-73
2023/01/07 04:18:16;;;;;;;;;;;;;;;7.07;100.00;99184.81;4237775;33;19953;-73
2023/01/07 04:20:46;;;;;;;;;;;;;;;6.96;100.00;99181.00;4240418;33;20897;-73
2023/01/07 04:23:13;;;;;;;;;;;;;;;7.12;100.00;99184.16;4238379;33;20303;-73
2023/01/07 04:25:47;;;;;;;;;;;;;;;7.04;100.00;99180.72;4239666;33;19959;-74
2023/01/07 04:28:15;;;;;;;;;;;;;;;6.95;100.00;99181.22;4238789;33;19976;-73
2023/01/07 04:30:41;;;;;;;;;;;;;;;7.06;100.00;99183.16;4226327;34;20338;-73
2023/01/07 04:33:10;;;;;;;;;;;;;;;7.01;100.00;99181.16;4226876;34;19942;-73
2023/01/07 04:35:40;;;;;;;;;;;;;;;6.91;100.00;99176.31;4227016;34;20008;-72
2023/01/07 04:38:07;;;;;;;;;;;;;;;7.06;100.00;99180.50;4218220;34;19997;-73
2023/01/07 04:40:33;;;;;;;;;;;;;;;7.24;100.00;99179.66;4212209;34;19989;-73
2023/01/07 04:43:00;;;;;;;;;;;;;;;7.17;100.00;99174.38;4221593;33;19942;-73
2023/01/07 04:45:28;;;;;;;;;;;;;;;7.18;100.00;99176.03;4225911;34;20028;-73
2023/01/07 04:47:55;;;;;;;;;;;;;;;7.08;100.00;99181.06;4250544;33;20300;-73
2023/01/07 04:50:23;;;;;;;;;;;;;;;7.08;100.00;99192.63;4254745;33;20910;-74
2023/01/07 04:52:50;;;;;;;;;;;;;;;7.33;100.00;99188.22;4239464;33;19961;-74
2023/01/07 04:55:16;;;;;;;;;;;;;;;7.12;100.00;99187.63;4240014;33;20284;-73
2023/01/07 04:57:43;;;;;;;;;;;;;;;7.40;100.00;99188.94;4239348;33;20001;-73
2023/01/07 05:00:10;;;;;;;;;;;;;;;6.97;100.00;99195.19;4237845;33;19961;-73
2023/01/07 05:02:37;;;;;;;;;;;;;;;7.04;100.00;99201.31;4263598;33;20266;-74
2023/01/07 05:05:04;;;;;;;;;;;;;;;7.13;100.00;99193.81;4280999;33;19994;-73
2023/01/07 05:07:31;;;;;;;;;;;;;;;6.87;100.00;99195.72;4280682;33;20349;-74
2023/01/07 05:09:58;;;;;;;;;;;;;;;7.12;100.00;99200.22;4279916;33;19951;-73
2023/01/07 05:12:24;;;;;;;;;;;;;;;7.23;100.00;99194.91;4279756;33;20307;-73
2023/01/07 05:14:52;;;;;;;;;;;;;;;7.33;100.00;99193.59;4277790;33;20304;-73
2023/01/07 05:17:18;;;;;;;;;;;;;;;7.19;100.00;99183.00;4281822;33;19984;-74
2023/01/07 05:19:44;;;;;;;;;;;;;;;6.90;100.00;99177.34;4267352;33;19947;-74
2023/01/07 05:22:11;;;;;;;;;;;;;;;7.08;100.00;99186.44;4265421;33;19950;-73
2023/01/07 05:24:38;;;;;;;;;;;;;;;7.30;100.00;99178.78;4265215;33;20099;-74
2023/01/07 05:27:04;;;;;;;;;;;;;;;7.34;100.00;99187.16;4266944;33;20901;-74
2023/01/07 05:29:31;;;;;;;;;;;;;;;7.35;100.00;99178.91;4265757;33;19963;-73
2023/01/07 05:31:58;;;;;;;;;;;;;;;7.25;100.00;99174.09;4264766;33;19952;-74
2023/01/07 05:34:24;;;;;;;;;;;;;;;7.25;100.00;99182.12;4264164;33;20061;-74
2023/01/07 05:36:51;;;;;;;;;;;;;;;7.09;100.00;99183.53;4264852;33;20334;-73
2023/01/07 05:39:18;;;;;;;;;;;;;;;7.21;100.00;99180.94;4237448;33;20365;-74
2023/01/07 05:41:44;;;;;;;;;;;;;;;7.10;100.00;99189.72;4238487;33;19958;-73
2023/01/07 05:44:10;;;;;;;;;;;;;;;7.38;100.00;99185.69;4236356;33;20013;-73
2023/01/07 05:46:37;;;;;;;;;;;;;;;7.17;100.00;99192.31;4237280;33;20000;-73
2023/01/07 05:49:03;;;;;;;;;;;;;;;6.98;100.00;99196.84;4237949;33;19992;-73
2023/01/07 05:51:29;;;;;;;;;;;;;;;6.88;100.00;99187.47;4238362;33;20002;-74
2023/01/07 05:53:55;;;;;;;;;;;;;;;6.80;100.00;99189.62;4237557;33;20407;-74
2023/01/07 05:56:21;;;;;;;;;;;;;;;7.17;100.00;99198.50;4211677;34;19971;-73
2023/01/07 05:58:48;;;;;;;;;;;;;;;6.94;100.00;99195.66;4223507;34;20095;-73
2023/01/07 06:01:14;;;;;;;;;;;;;;;7.02;100.00;99190.00;4222892;33;20004;-73
2023/01/07 06:03:40;;;;;;;;;;;;;;;7.07;100.00;99199.00;4223938;34;19967;-73
2023/01/07 06:06:06;;;;;;;;;;;;;;;6.83;100.00;99198.03;4224168;33;20334;-73
2023/01/07 06:08:33;;;;;;;;;;;;;;;6.46;100.00;99200.63;4221876;33;19982;-74
2023/01/07 06:11:00;;;;;;;;;;;;;;;6.85;100.00;99206.66;4244556;33;19976;-73
2023/01/07 06:13:27;;;;;;;;;;;;;;;6.73;100.00;99205.72;4251009;33;19950;-73
2023/01/07 06:15:58;;;;;;;;;;;;;;;6.83;100.00;99214.09;4223521;33;19969;-74
2023/01/07 06:18:25;;;;;;;;;;;;;;;6.78;100.00;99211.25;4224022;33;19935;-74
2023/01/07 06:20:51;;;;;;;;;;;;;;;6.62;100.00;99219.81;4222946;33;19946;-73
2023/01/07 06:23:17;;;;;;;;;;;;;;;6.29;100.00;99215.56;4220099;33;20019;-73
2023/01/07 06:25:43;;;;;;;;;;;;;;;6.39;100.00;99215.91;4223490;34;20354;-73
2023/01/07 06:28:09;;;;;;;;;;;;;;;6.36;100.00;99216.34;4242797;33;20017;-73
2023/01/07 06:30:35;;;;;;;;;;;;;;;6.66;100.00;99226.38;4244525;33;19938;-73
2023/01/07 06:33:04;;;;;;;;;;;;;;;6.58;100.00;99229.34;4243396;33;19946;-73
2023/01/07 06:35:31;;;;;;;;;;;;;;;6.47;100.00;99229.00;4243161;33;19968;-74
2023/01/07 06:37:57;;;;;;;;;;;;;;;6.29;100.00;99231.63;4246853;33;19950;-74
2023/01/07 06:40:30;;;;;;;;;;;;;;;6.53;100.00;99233.47;4245817;33;19958;-74
2023/01/07 06:42:57;;;;;;;;;;;;;;;6.22;100.00;99239.66;4243961;33;19982;-74
2023/01/07 06:45:23;;;;;;;;;;;;;;;6.34;100.00;99237.13;4245266;33;19950;-72
2023/01/07 06:47:49;;;;;;;;;;;;;;;6.32;100.00;99234.69;4263391;33;19953;-74
2023/01/07 06:50:16;;;;;;;;;;;;;;;6.10;100.00;99244.91;4264653;33;20338;-74
2023/01/07 06:52:42;;;;;;;;;;;;;;;5.85;100.00;99241.31;4264407;33;20321;-74
2023/01/07 06:55:09;;;;;;;;;;;;;;;6.03;100.00;99244.13;4239660;33;20461;-75
2023/01/07 06:57:35;;;;;;;;;;;;;;;6.05;100.00;99252.75;4236012;33;19946;-74
2023/01/07 07:00:03;;;;;;;;;;;;;;;6.12;100.00;99253.50;4238401;33;19964;-75
2023/01/07 07:02:29;;;;;;;;;;;;;;;6.09;100.00;99248.59;4235687;33;20010;-76
2023/01/07 07:04:55;;;;;;;;;;;;;;;5.73;100.00;99255.34;4210248;34;20381;-75
2023/01/07 07:07:22;;;;;;;;;;;;;;;5.69;100.00;99258.66;4208325;34;19939;-74
2023/01/07 07:09:49;;;;;;;;;;;;;;;5.81;100.00;99257.78;4207550;34;20298;-75
2023/01/07 07:12:15;;;;;;;;;;;;;;;6.03;100.00;99254.81;4209387;34;19963;-76
2023/01/07 07:14:42;;;;;;;;;;;;;;;6.18;100.00;99249.97;4209953;34;19969;-75
2023/01/07 07:17:08;;;;;;;;;;;;;;;5.94;100.00;99250.72;4209844;34;19951;-75
2023/01/07 07:19:34;;;;;;;;;;;;;;;5.63;100.00;99244.28;4209717;34;19949;-75
2023/01/07 07:22:00;;;;;;;;;;;;;;;6.00;100.00;99239.22;4207497;34;20335;-74
2023/01/07 07:24:27;;;;;;;;;;;;;;;6.17;100.00;99248.38;4209649;34;19955;-75
2023/01/07 07:26:53;;;;;;;;;;;;;;;5.97;100.00;99247.66;4231364;33;19938;-75
2023/01/07 07:29:19;;;;;;;;;;;;;;;6.09;100.00;99253.13;4251131;33;19997;-75
2023/01/07 07:31:45;;;;;;;;;;;;;;;5.97;100.00;99263.69;4254769;33;19946;-75
2023/01/07 07:34:11;;;;;;;;;;;;;;;5.75;100.00;99260.47;4253738;33;20065;-75
2023/01/07 07:36:38;;;;;;;;;;;;;;;5.80;100.00;99269.47;4288072;33;19958;-75
2023/01/07 07:39:04;;;;;;;;;;;;;;;5.89;100.00;99269.22;4298908;33;19965;-75
2023/01/07 07:41:30;;;;;;;;;;;;;;;5.91;100.00;99261.84;4299493;33;19992;-75
2023/01/07 07:43:59;;;;;;;;;;;;;;;6.27;100.00;99266.59;4299025;33;19998;-75
2023/01/07 07:48:58;;;;;;;;;;;;;;;6.03;100.00;99240.63;4299577;33;19956;-75
2023/01/07 07:51:23;;;;;;;;;;;;;;;6.08;100.00;99263.00;4299373;33;19946;-75
2023/01/07 07:53:50;;;;;;;;;;;;;;;6.34;100.00;99271.91;4298214;33;19953;-75
2023/01/07 07:56:16;;;;;;;;;;;;;;;6.49;100.00;99259.03;4298904;33;19962;-75
2023/01/07 07:58:42;;;;;;;;;;;;;;;6.37;100.00;99258.09;4266000;33;19938;-74
2023/01/07 08:01:09;;;;;;;;;;;;;;;6.84;100.00;99265.75;4267798;33;19961;-75
2023/01/07 08:03:36;;;;;;;;;;;;;;;6.88;100.00;99265.09;4266566;33;19938;-75
2023/01/07 08:06:02;;;;;;;;;;;;;;;6.81;100.00;99272.38;4266490;33;19949;-74
2023/01/07 08:08:28;;;;;;;;;;;;;;;6.77;100.00;99271.16;4265561;33;19995;-74
2023/01/07 08:10:55;;;;;;;;;;;;;;;6.62;100.00;99265.31;4267742;33;19946;-75
2023/01/07 08:13:22;;;;;;;;;;;;;;;6.60;100.00;99264.72;4268056;33;19969;-75
2023/01/07 08:15:47;;;;;;;;;;;;;;;6.99;100.00;99270.75;4266811;33;19938;-74
2023/01/07 08:18:14;;;;;;;;;;;;;;;6.83;100.00;99270.28;4268304;33;19964;-75
2023/01/07 08:20:40;;;;;;;;;;;;;;;6.48;100.00;99273.44;4252150;33;19965;-75
2023/01/07 08:23:07;;;;;;;;;;;;;;;6.43;100.00;99275.97;4253407;33;19954;-75
2023/01/07 08:25:34;;;;;;;;;;;;;;;6.84;100.00;99277.25;4252639;33;19946;-76
2023/01/07 08:28:01;;;;;;;;;;;;;;;6.71;100.00;99288.09;4253423;33;19950;-76
2023/01/07 08:30:27;;;;;;;;;;;;;;;6.62;100.00;99284.03;4264926;33;20373;-75
2023/01/07 08:32:55;;;;;;;;;;;;;;;6.59;100.00;99289.81;4266080;33;20397;-74
2023/01/07 08:35:21;;;;;;;;;;;;;;;6.76;100.00;99285.56;4263217;33;19967;-75
2023/01/07 08:37:47;;;;;;;;;;;;;;;6.60;100.00;99283.44;4238408;33;19985;-75
2023/01/07 08:40:14;;;;;;;;;;;;;;;6.78;100.00;99278.16;4239149;33;19943;-75
2023/01/07 08:42:40;;;;;;;;;;;;;;;6.78;100.00;99275.50;4238593;33;19968;-78
2023/01/07 08:45:07;;;;;;;;;;;;;;;6.71;100.00;99272.03;4238765;33;20083;-76
2023/01/07 08:47:34;;;;;;;;;;;;;;;6.99;100.00;99274.28;4238127;33;19963;-77
2023/01/07 08:50:00;;;;;;;;;;;;;;;7.07;100.00;99270.50;4240550;33;19950;-78
2023/01/07 08:52:27;;;;;;;;;;;;;;;7.05;100.00;99267.19;4245648;33;19983;-75
2023/01/07 08:54:53;;;;;;;;;;;;;;;6.77;100.00;99273.84;4238817;33;19946;-74
2023/01/07 08:57:19;;;;;;;;;;;;;;;6.65;100.00;99268.38;4235485;33;19955;-75
2023/01/07 08:59:45;;;;;;;;;;;;;;;7.03;100.00;99270.09;4238063;33;19942;-77
2023/01/07 09:02:13;;;;;;;;;;;;;;;6.63;100.00;99269.63;4239182;33;19950;-77
2023/01/07 09:04:38;;;;;;;;;;;;;;;6.78;100.00;99272.81;4234324;33;20386;-75
2023/01/07 09:07:05;;;;;;;;;;;;;;;7.04;100.00;99271.75;4237606;33;20658;-74
2023/01/07 09:09:31;;;;;;;;;;;;;;;7.08;100.00;99266.75;4259466;33;20087;-76
2023/01/07 09:11:57;;;;;;;;;;;;;;;7.30;100.00;99263.66;4267158;33;20366;-76
2023/01/07 09:14:23;;;;;;;;;;;;;;;7.25;100.00;99262.47;4267002;33;19949;-76
2023/01/07 09:16:50;;;;;;;;;;;;;;;7.51;100.00;99265.88;4270420;33;20022;-75
2023/01/07 09:19:16;;;;;;;;;;;;;;;7.00;100.00;99265.19;4265058;33;19946;-73
2023/01/07 09:21:42;;;;;;;;;;;;;;;7.20;100.00;99238.22;4267116;33;19979;-75
2023/01/07 09:24:08;;;;;;;;;;;;;;;7.13;100.00;99258.06;4288862;33;20026;-75
2023/01/07 09:26:34;;;;;;;;;;;;;;;7.41;100.00;99255.69;4282578;33;19946;-75
2023/01/07 09:29:00;;;;;;;;;;;;;;;7.14;100.00;99249.81;4285372;33;20307;-75
2023/01/07 09:31:27;;;;;;;;;;;;;;;7.12;100.00;99257.25;4281333;33;19975;-74
2023/01/07 09:33:53;;;;;;;;;;;;;;;7.03;100.00;99258.56;4282864;33;20896;-74
2023/01/07 09:36:19;;;;;;;;;;;;;;;6.99;100.00;99262.72;4284994;33;19959;-75
2023/01/07 09:38:45;;;;;;;;;;;;;;;7.23;100.00;99251.16;4284436;33;19997;-75
2023/01/07 09:41:37;;;;;;;;;;;;;;;7.79;100.00;99251.16;4262737;33;19989;-76
2023/01/07 09:44:14;;;;;;;;;;;;;;;8.07;100.00;99252.41;4264555;33;19977;-74
2023/01/07 09:46:41;;;;;;;;;;;;;;;7.88;100.00;99249.78;4264404;33;19941;-75
2023/01/07 09:49:15;;;;;;;;;;;;;;;7.79;100.00;99243.91;4265054;33;19956;-75
2023/01/07 09:51:44;;;;;;;;;;;;;;;7.86;100.00;99241.13;4264566;33;19941;-75
2023/01/07 09:54:21;;;;;;;;;;;;;;;7.30;100.00;99232.34;4264072;33;19985;-75
2023/01/07 09:56:47;;;;;;;;;;;;;;;7.27;100.00;99238.97;4262896;33;20121;-75
2023/01/07 09:59:14;;;;;;;;;;;;;;;6.86;100.00;99248.44;4271988;33;19963;-75
2023/01/07 10:01:49;;;;;;;;;;;;;;;7.05;100.00;99251.12;4265023;33;19964;-76
2023/01/07 10:04:16;;;;;;;;;;;;;;;7.43;100.00;99255.47;4266016;33;19952;-76
2023/01/07 10:06:52;;;;;;;;;;;;;;;7.22;100.00;99252.19;4266723;33;19945;-77
2023/01/07 10:09:36;;;;;;;;;;;;;;;7.12;100.00;99246.53;4264056;33;20003;-76
2023/01/07 10:12:03;;;;;;;;;;;;;;;6.82;100.00;99247.22;4268107;33;19945;-75
2023/01/07 10:14:32;;;;;;;;;;;;;;;7.11;100.00;99252.94;4280665;33;20036;-75
2023/01/07 10:17:16;;;;;;;;;;;;;;;7.28;100.00;99253.19;4279464;33;19949;-74
2023/01/07 10:20:03;;;;;;;;;;;;;;;7.47;100.00;99259.34;4279765;33;19949;-74
2023/01/07 10:22:32;;;;;;;;;;;;;;;7.68;100.00;99254.59;4270353;33;19992;-74
2023/01/07 10:25:03;;;;;;;;;;;;;;;7.57;100.00;99256.97;4268380;33;19970;-74
2023/01/07 10:27:36;;;;;;;;;;;;;;;7.73;100.00;99257.41;4244236;33;19971;-75
2023/01/07 10:30:10;;;;;;;;;;;;;;;7.87;100.00;99260.75;4246709;33;20250;-74
2023/01/07 10:32:37;;;;;;;;;;;;;;;7.49;100.00;99262.63;4247364;33;19965;-76
2023/01/07 10:35:11;;;;;;;;;;;;;;;7.58;100.00;99249.75;4248504;33;19960;-75
2023/01/07 10:37:38;;;;;;;;;;;;;;;7.58;100.00;99255.94;4248823;33;19964;-75
2023/01/07 10:40:11;;;;;;;;;;;;;;;7.38;100.00;99244.63;4248387;33;20361;-74
2023/01/07 10:42:37;;;;;;;;;;;;;;;7.62;100.00;99241.03;4249737;33;20258;-76
2023/01/07 10:45:09;;;;;;;;;;;;;;;7.86;100.00;99235.78;4250545;33;19990;-75
2023/01/07 10:47:38;;;;;;;;;;;;;;;7.62;100.00;99226.81;4249818;33;19963;-73
2023/01/07 10:50:24;;;;;;;;;;;;;;;7.12;100.00;99235.84;4246735;33;20272;-75
2023/01/07 10:52:53;;;;;;;;;;;;;;;7.36;100.00;99233.31;4248962;33;19966;-75
2023/01/07 10:55:27;;;;;;;;;;;;;;;7.41;100.00;99222.75;4249491;33;20011;-74
2023/01/07 10:57:54;;;;;;;;;;;;;;;7.28;100.00;99219.16;4250183;33;19950;-75
2023/01/07 11:00:22;;;;;;;;;;;;;;;7.35;100.00;99218.28;4261055;33;20057;-75
2023/01/07 11:02:53;;;;;;;;;;;;;;;7.38;100.00;99212.47;4278581;33;20295;-74
2023/01/07 11:05:20;;;;;;;;;;;;;;;7.40;100.00;99215.75;4262349;33;20030;-74
2023/01/07 11:07:47;;;;;;;;;;;;;;;7.59;100.00;99208.50;4262019;33;20015;-73
2023/01/07 11:10:15;;;;;;;;;;;;;;;7.54;100.00;99206.50;4263485;33;20028;-75
2023/01/07 11:12:45;;;;;;;;;;;;;;;7.37;100.00;99206.31;4262976;33;20065;-75
2023/01/07 11:15:17;;;;;;;;;;;;;;;7.62;100.00;99208.84;4265086;33;19942;-74
2023/01/07 11:17:53;;;;;;;;;;;;;;;8.11;100.00;99213.38;4262714;33;19985;-73
2023/01/07 11:20:38;;;;;;;;;;;;;;;7.82;100.00;99207.81;4263675;33;20073;-74
2023/01/07 11:23:18;;;;;;;;;;;;;;;7.80;100.00;99204.50;4260838;33;19953;-73
2023/01/07 11:25:45;;;;;;;;;;;;;;;7.81;100.00;99198.13;4263448;33;19950;-75
2023/01/07 11:28:19;;;;;;;;;;;;;;;8.16;100.00;99192.03;4261720;33;19942;-74
2023/01/07 11:30:57;;;;;;;;;;;;;;;7.78;100.00;99190.53;4261471;33;19942;-75
2023/01/07 11:33:26;;;;;;;;;;;;;;;7.80;100.00;99193.78;4247096;33;20297;-75
2023/01/07 11:35:53;;;;;;;;;;;;;;;7.89;100.00;99181.69;4254329;33;19934;-75
2023/01/07 11:38:27;;;;;;;;;;;;;;;7.84;100.00;99189.62;4264024;33;20489;-76
2023/01/07 11:40:57;;;;;;;;;;;;;;;7.96;100.00;99193.16;4262514;33;19971;-75
2023/01/07 11:43:29;;;;;;;;;;;;;;;7.67;100.00;99183.25;4262551;33;19950;-76
2023/01/07 11:45:57;;;;;;;;;;;;;;;8.17;100.00;99182.97;4264093;33;20260;-76
2023/01/07 11:48:26;;;;;;;;;;;;;;;8.29;100.00;99181.09;4263984;33;19957;-76
2023/01/07 11:50:52;;;;;;;;;;;;;;;7.75;100.00;99174.91;4252055;33;19971;-74
2023/01/07 11:53:22;;;;;;;;;;;;;;;8.11;100.00;99178.50;4261349;33;20032;-75
2023/01/07 11:55:56;;;;;;;;;;;;;;;8.20;100.00;99177.13;4248935;33;19972;-74
2023/01/07 11:58:28;;;;;;;;;;;;;;;8.24;100.00;99167.56;4249655;33;19979;-75
2023/01/07 12:01:06;;;;;;;;;;;;;;;8.30;100.00;99172.00;4403342;28;20002;-76
2023/01/07 12:03:33;;;;;;;;;;;;;;;7.94;100.00;99179.16;4253863;33;20402;-74
2023/01/07 12:06:04;;;;;;;;;;;;;;;7.82;100.00;99176.44;4261889;33;19957;-76
2023/01/07 12:08:31;;;;;;;;;;;;;;;8.18;100.00;99171.16;4262624;33;19954;-76
2023/01/07 12:11:01;;;;;;;;;;;;;;;7.95;100.00;99180.00;4264994;33;20387;-76
2023/01/07 12:13:27;;;;;;;;;;;;;;;7.99;100.00;99165.91;4263693;33;20382;-75
2023/01/07 12:16:04;;;;;;;;;;;;;;;8.15;100.00;99163.56;4260202;33;20608;-75
2023/01/07 12:18:42;;;;;;;;;;;;;;;8.25;100.00;99158.47;4265234;33;19946;-74
2023/01/07 12:21:27;;;;;;;;;;;;;;;8.18;100.00;99152.38;4292936;33;19940;-74
2023/01/07 12:24:12;;;;;;;;;;;;;;;8.44;100.00;99147.66;4293590;33;19949;-75
2023/01/07 12:26:53;;;;;;;;;;;;;;;8.16;100.00;99141.09;4285624;33;20008;-74
2023/01/07 12:29:35;;;;;;;;;;;;;;;7.82;100.00;99138.91;4292524;33;20319;-76
2023/01/07 12:32:09;;;;;;;;;;;;;;;7.93;100.00;99140.00;4284941;33;19963;-75
2023/01/07 12:34:45;;;;;;;;;;;;;;;8.29;100.00;99138.16;4299123;33;19945;-76
2023/01/07 12:37:17;;;;;;;;;;;;;;;8.60;100.00;99128.19;4310681;33;19975;-75
2023/01/07 12:39:45;;;;;;;;;;;;;;;8.66;100.00;99119.22;4312251;33;19956;-76
2023/01/07 12:42:23;;;;;;;;;;;;;;;9.00;100.00;99113.19;4311574;33;19966;-75
2023/01/07 12:44:53;;;;;;;;;;;;;;;8.75;100.00;99113.47;4310930;33;19978;-75
2023/01/07 12:47:24;;;;;;;;;;;;;;;8.79;100.00;99120.00;4312441;33;20065;-75
2023/01/07 12:49:51;;;;;;;;;;;;;;;8.34;100.00;99118.69;4282721;33;19953;-74
2023/01/07 12:52:25;;;;;;;;;;;;;;;8.65;100.00;99104.16;4279410;33;20012;-75
2023/01/07 12:54:55;;;;;;;;;;;;;;;8.18;100.00;99110.31;4280660;33;19950;-75
2023/01/07 12:57:27;;;;;;;;;;;;;;;8.71;100.00;99113.09;4280082;33;19959;-75
2023/01/07 12:59:57;;;;;;;;;;;;;;;8.85;100.00;99098.38;4279353;33;20324;-74
2023/01/07 13:02:38;;;;;;;;;;;;;;;8.44;100.00;99108.25;4275338;33;19961;-75
2023/01/07 13:05:09;;;;;;;;;;;;;;;8.64;100.00;99102.50;4274872;33;20282;-73
2023/01/07 13:07:53;;;;;;;;;;;;;;;8.63;100.00;99117.00;4276135;33;20008;-73
2023/01/07 13:10:29;;;;;;;;;;;;;;;8.72;100.00;99112.06;4279950;33;19961;-74
2023/01/07 13:12:58;;;;;;;;;;;;;;;8.51;100.00;99114.31;4282478;33;20012;-74
2023/01/07 13:15:26;;;;;;;;;;;;;;;8.25;100.00;99126.28;4277605;33;19956;-73
2023/01/07 13:17:53;;;;;;;;;;;;;;;8.15;100.00;99121.50;4277598;33;19961;-74
2023/01/07 13:20:31;;;;;;;;;;;;;;;8.82;100.00;99108.78;4278588;33;19957;-74
2023/01/07 13:22:58;;;;;;;;;;;;;;;8.29;100.00;99105.97;4278036;33;19992;-74
2023/01/07 13:25:24;;;;;;;;;;;;;;;8.44;100.00;99102.03;4277212;33;19957;-74
2023/01/07 13:28:09;;;;;;;;;;;;;;;8.50;100.00;99101.13;4294985;33;20278;-73
2023/01/07 13:31:05;;;;;;;;;;;;;;;8.73;100.00;99101.09;4279393;33;20100;-74
2023/01/07 13:33:38;;;;;;;;;;;;;;;8.70;100.00;99100.75;4280857;33;20085;-73
2023/01/07 13:36:10;;;;;;;;;;;;;;;8.55;100.00;99103.91;4287391;33;19945;-74
2023/01/07 13:38:54;;;;;;;;;;;;;;;8.66;100.00;99100.41;4280653;33;19949;-74
2023/01/07 13:41:40;;;;;;;;;;;;;;;8.61;100.00;99092.22;4284684;33;20403;-74
2023/01/07 13:44:05;;;;;;;;;;;;;;;8.46;100.00;99105.34;4283488;33;19949;-74
2023/01/07 13:46:37;;;;;;;;;;;;;;;8.35;100.00;99107.75;4271270;33;19956;-74
2023/01/07 13:49:04;;;;;;;;;;;;;;;8.71;100.00;99113.09;4265667;33;19958;-74
2023/01/07 13:51:35;;;;;;;;;;;;;;;8.94;100.00;99117.66;4252783;33;20009;-74
2023/01/07 13:54:02;;;;;;;;;;;;;;;8.93;100.00;99110.63;4250944;33;20330;-74
2023/01/07 13:56:30;;;;;;;;;;;;;;;8.77;100.00;99108.69;4234411;33;20407;-74
2023/01/07 13:58:56;;;;;;;;;;;;;;;8.50;100.00;99106.47;4237550;33;19972;-74
2023/01/07 14:01:24;;;;;;;;;;;;;;;8.81;100.00;99112.53;4243166;33;19949;-74
2023/01/07 14:03:52;;;;;;;;;;;;;;;8.47;100.00;99112.31;4253253;33;19965;-74
2023/01/07 14:06:43;;;;;;;;;;;;;;;8.47;100.00;99110.47;4257528;33;20016;-74
2023/01/07 14:09:12;;;;;;;;;;;;;;;8.45;100.00;99115.22;4251618;33;19946;-74
2023/01/07 14:11:57;;;;;;;;;;;;;;;8.73;100.00;99111.84;4223462;33;19950;-74
2023/01/07 14:14:30;;;;;;;;;;;;;;;8.93;100.00;99110.63;4220031;33;19954;-73
2023/01/07 14:17:02;;;;;;;;;;;;;;;8.85;100.00;99109.13;4226773;33;19956;-75
2023/01/07 14:19:37;;;;;;;;;;;;;;;8.49;100.00;99113.72;4237551;33;20313;-74
2023/01/07 14:22:09;;;;;;;;;;;;;;;8.45;100.00;99114.41;4235634;33;19942;-74
2023/01/07 14:24:51;;;;;;;;;;;;;;;8.84;100.00;99122.78;4211506;34;20169;-75
2023/01/07 14:27:20;;;;;;;;;;;;;;;9.06;100.00;99113.06;4217457;33;20358;-74
2023/01/07 14:29:48;;;;;;;;;;;;;;;8.86;100.00;99116.13;4235655;33;19966;-74
2023/01/07 14:32:23;;;;;;;;;;;;;;;8.78;100.00;99116.50;4237175;33;19958;-74
2023/01/07 14:34:54;;;;;;;;;;;;;;;8.45;100.00;99130.53;4244028;33;20076;-73
2023/01/07 14:37:41;;;;;;;;;;;;;;;8.66;100.00;99127.25;4251825;33;19945;-73
2023/01/07 14:40:19;;;;;;;;;;;;;;;8.21;100.00;99125.09;4252066;33;19953;-74
2023/01/07 14:42:45;;;;;;;;;;;;;;;8.17;100.00;99132.81;4266145;33;19975;-75
2023/01/07 14:45:30;;;;;;;;;;;;;;;8.44;100.00;99128.88;4279353;33;19955;-73
2023/01/07 14:47:57;;;;;;;;;;;;;;;8.28;100.00;99131.19;4275671;33;19977;-74
2023/01/07 14:50:31;;;;;;;;;;;;;;;8.51;100.00;99127.72;4262991;33;19949;-73
2023/01/07 14:53:20;;;;;;;;;;;;;;;8.63;100.00;99126.91;4263625;33;19988;-73
2023/01/07 14:55:50;;;;;;;;;;;;;;;8.35;100.00;99125.72;4286283;33;19952;-75
2023/01/07 14:58:35;;;;;;;;;;;;;;;8.78;100.00;99123.75;4309676;33;19962;-75
2023/01/07 15:01:15;;;;;;;;;;;;;;;8.71;100.00;99113.94;4305295;33;19957;-74
2023/01/07 15:03:51;;;;;;;;;;;;;;;8.70;100.00;99115.00;4302631;33;19957;-76
2023/01/07 15:06:24;;;;;;;;;;;;;;;8.30;100.00;99113.00;4306454;33;19987;-74
2023/01/07 15:17:16;;;;;;;;;;;;;;;8.50;100.00;99101.94;4308400;33;19944;-75